createdAt,value
2018-09-12T00:05:52.000Z,47.533
2018-09-12T00:15:52.000Z,47.489
2018-09-12T00:25:52.000Z,47.477
2018-09-12T00:35:52.000Z,47.464
2018-09-12T00:45:52.000Z,47.476
2018-09-12T00:55:52.000Z,47.495
2018-09-12T01:05:52.000Z,47.495
2018-09-12T01:15:52.000Z,47.582
2018-09-12T01:25:52.000Z,47.724
2018-09-12T01:35:52.000Z,47.876
2018-09-12T01:45:52.000Z,47.865
2018-09-12T01:55:52.000Z,47.929
2018-09-12T02:05:52.000Z,48.125
2018-09-12T02:15:52.000Z,48.048
2018-09-12T02:25:53.000Z,48.178
2018-09-12T02:35:52.000Z,48.189
2018-09-12T02:45:52.000Z,48.319
2018-09-12T02:55:52.000Z,48.405
2018-09-12T03:05:52.000Z,48.436
2018-09-12T03:15:53.000Z,48.468
2018-09-12T03:25:52.000Z,48.523
2018-09-12T03:35:52.000Z,48.628
2018-09-12T03:45:52.000Z,48.627
2018-09-12T03:55:52.000Z,48.637
2018-09-12T04:05:52.000Z,48.659
2018-09-12T04:15:52.000Z,48.722
2018-09-12T04:25:53.000Z,48.732
2018-09-12T04:35:53.000Z,48.828
2018-09-12T04:45:53.000Z,48.871
2018-09-12T04:55:53.000Z,48.925
2018-09-12T05:05:53.000Z,48.968
2018-09-12T05:15:53.000Z,48.999
2018-09-12T05:25:53.000Z,49.031
2018-09-12T05:35:53.000Z,49.107
2018-09-12T05:45:53.000Z,49.074
2018-09-12T05:55:53.000Z,49.248
2018-09-12T06:05:53.000Z,49.379
2018-09-12T06:15:53.000Z,49.521
2018-09-12T06:25:53.000Z,49.664
2018-09-12T06:35:53.000Z,49.708
2018-09-12T06:45:53.000Z,49.728
2018-09-12T06:55:53.000Z,49.894
2018-09-12T07:05:53.000Z,50.017
2018-09-12T07:15:53.000Z,49.911
2018-09-12T07:25:53.000Z,49.992
2018-09-12T07:35:53.000Z,50.136
2018-09-12T07:45:53.000Z,50.03
2018-09-12T07:55:53.000Z,50.396
2018-09-12T08:05:53.000Z,50.36
2018-09-12T08:15:53.000Z,50.581
2018-09-12T08:25:53.000Z,50.305
2018-09-12T08:35:53.000Z,50.094
2018-09-12T08:45:53.000Z,50.009
2018-09-12T08:55:53.000Z,50.635
2018-09-12T09:05:53.000Z,50.413
2018-09-12T09:15:53.000Z,51.019
2018-09-12T09:25:53.000Z,51.055
2018-09-12T09:35:53.000Z,51.095
2018-09-12T09:45:53.000Z,51.285
2018-09-12T09:55:53.000Z,51.458
2018-09-12T10:05:53.000Z,51.395
2018-09-12T10:15:53.000Z,51.356
2018-09-12T10:25:53.000Z,51.451
2018-09-12T10:35:53.000Z,51.929
2018-09-12T10:45:53.000Z,51.667
2018-09-12T10:55:53.000Z,50.932
2018-09-12T11:05:53.000Z,50.945
2018-09-12T11:25:53.000Z,50.235
2018-09-12T11:35:53.000Z,49.982
2018-09-12T11:45:53.000Z,49.582
2018-09-12T11:55:53.000Z,49.711
2018-09-12T12:05:53.000Z,49.761
2018-09-12T12:15:53.000Z,49.462
2018-09-12T12:25:54.000Z,49.461
2018-09-12T12:35:53.000Z,49.422
2018-09-12T12:45:54.000Z,49.512
2018-09-12T12:55:54.000Z,49.464
2018-09-12T13:05:54.000Z,49.842
2018-09-12T13:15:54.000Z,49.974
2018-09-12T13:25:54.000Z,50.112
2018-09-12T13:35:54.000Z,50.001
2018-09-12T13:45:54.000Z,50.109
2018-09-12T13:55:54.000Z,50.278
2018-09-12T14:05:54.000Z,50.33
2018-09-12T14:15:54.000Z,50.36
2018-09-12T14:25:54.000Z,50.423
2018-09-12T14:35:54.000Z,50.431
2018-09-12T14:45:54.000Z,50.343
2018-09-12T14:55:54.000Z,50.321
2018-09-12T15:05:54.000Z,50.492
2018-09-12T15:15:54.000Z,50.37
2018-09-12T15:25:54.000Z,50.337
2018-09-12T15:35:54.000Z,50.423
2018-09-12T15:45:54.000Z,50.485
2018-09-12T15:55:54.000Z,50.409
2018-09-12T16:05:54.000Z,50.48
2018-09-12T16:15:54.000Z,50.51
2018-09-12T16:25:54.000Z,50.474
2018-09-12T16:35:54.000Z,50.494
2018-09-12T16:45:54.000Z,50.545
2018-09-12T16:55:54.000Z,50.543
2018-09-12T17:05:58.000Z,50.573
2018-09-12T17:15:55.000Z,50.603
2018-09-12T17:25:54.000Z,50.632
2018-09-12T17:35:54.000Z,50.653
2018-09-12T17:45:54.000Z,50.672
2018-09-12T17:55:54.000Z,50.724
2018-09-12T18:05:54.000Z,50.721
2018-09-12T18:15:54.000Z,50.772
2018-09-12T18:25:54.000Z,50.782
2018-09-12T18:35:54.000Z,50.802
2018-09-12T18:45:54.000Z,50.884
2018-09-12T18:55:54.000Z,51.014
2018-09-12T19:05:55.000Z,51.091
2018-09-12T19:15:54.000Z,51.188
2018-09-12T19:25:54.000Z,51.253
2018-09-12T19:35:54.000Z,51.36
2018-09-12T19:45:54.000Z,51.434
2018-09-12T19:55:54.000Z,51.487
2018-09-12T20:05:54.000Z,51.506
2018-09-12T20:15:56.000Z,51.539
2018-09-12T20:25:54.000Z,51.6
2018-09-12T20:35:54.000Z,51.643
2018-09-12T20:45:54.000Z,51.663
2018-09-12T20:55:54.000Z,51.597
2018-09-12T21:05:55.000Z,51.636
2018-09-12T21:15:55.000Z,51.544
2018-09-12T21:25:55.000Z,51.454
2018-09-12T21:35:55.000Z,51.331
2018-09-12T21:45:55.000Z,51.294
2018-09-12T21:55:55.000Z,51.105
2018-09-12T22:05:55.000Z,50.981
2018-09-12T22:15:55.000Z,50.901
2018-09-12T22:25:55.000Z,50.888
2018-09-12T22:35:55.000Z,50.853
2018-09-12T22:45:55.000Z,50.832
2018-09-12T22:55:55.000Z,50.828
2018-09-12T23:05:55.000Z,50.804
2018-09-12T23:15:55.000Z,50.781
2018-09-12T23:25:55.000Z,50.747
2018-09-12T23:35:55.000Z,50.745
2018-09-12T23:45:55.000Z,50.754
2018-09-12T23:55:55.000Z,50.743
